Time;durP1;ratioP1;P1;durP2;ratioP2;P2;SDS_P1;SDS_P2;PMS_P1;PMS_P2;Temp;Humidity;BMP_temperature;BMP_pressure;BME280_temperature;BME280_humidity;BME280_pressure;Samples;Min_cycle;Max_cycle;Signal;HPM_P1;HPM_P2
2023/03/26 00:01:14;;;;;;;5.13;1.80;;;7.00;99.90;;;;;;5019825;28;20180;-87
2023/03/26 00:03:43;;;;;;;8.17;1.80;;;7.00;99.90;;;;;;5021723;28;20202;-86
2023/03/26 00:06:14;;;;;;;7.17;1.40;;;7.00;99.90;;;;;;5022117;28;20013;-86
2023/03/26 00:08:41;;;;;;;4.70;1.97;;;7.00;99.90;;;;;;5021966;28;20480;-86
2023/03/26 00:11:10;;;;;;;5.20;1.67;;;7.00;99.90;;;;;;5022308;28;20025;-86
2023/03/26 00:13:37;;;;;;;5.83;1.30;;;6.90;99.90;;;;;;5019237;28;20057;-86
2023/03/26 00:16:03;;;;;;;3.30;1.10;;;6.90;99.90;;;;;;5021123;28;20025;-86
2023/03/26 00:18:30;;;;;;;3.87;1.10;;;6.90;99.90;;;;;;5020140;28;20044;-87
2023/03/26 00:20:57;;;;;;;6.57;1.43;;;6.80;99.90;;;;;;5021008;28;21463;-85
2023/03/26 00:23:23;;;;;;;5.47;1.50;;;6.80;99.90;;;;;;5020662;28;20179;-86
2023/03/26 00:25:50;;;;;;;5.50;1.20;;;6.70;99.90;;;;;;5020413;28;20063;-86
2023/03/26 00:28:20;;;;;;;3.57;1.20;;;6.80;99.90;;;;;;5020496;28;20037;-87
2023/03/26 00:30:46;;;;;;;3.57;1.30;;;6.70;99.90;;;;;;5021454;28;20167;-86
2023/03/26 00:33:16;;;;;;;6.33;1.60;;;6.70;99.90;;;;;;5019122;28;20033;-86
2023/03/26 00:35:45;;;;;;;5.60;1.53;;;6.70;99.90;;;;;;5020710;28;20037;-86
2023/03/26 00:38:14;;;;;;;4.57;1.30;;;6.70;99.90;;;;;;5019975;28;20028;-86
2023/03/26 00:40:42;;;;;;;6.03;1.50;;;6.60;99.90;;;;;;5020982;28;20125;-86
2023/03/26 00:43:17;;;;;;;5.57;1.70;;;6.60;99.90;;;;;;5020126;28;20025;-87
2023/03/26 00:45:44;;;;;;;5.20;1.60;;;6.50;99.90;;;;;;5021958;28;20116;-87
2023/03/26 00:48:10;;;;;;;8.13;2.87;;;6.50;99.90;;;;;;5020952;28;20029;-86
2023/03/26 00:50:36;;;;;;;6.90;2.20;;;6.40;99.90;;;;;;5021490;28;20124;-86
2023/03/26 00:53:01;;;;;;;7.47;1.70;;;6.40;99.90;;;;;;5018987;28;20033;-87
2023/03/26 00:55:27;;;;;;;5.17;1.40;;;6.40;99.90;;;;;;5020795;28;20044;-86
2023/03/26 00:57:54;;;;;;;5.93;1.40;;;6.40;99.90;;;;;;5019958;28;20132;-86
2023/03/26 01:00:28;;;;;;;7.03;1.57;;;6.40;99.90;;;;;;5021083;28;20079;-87
2023/03/26 01:02:54;;;;;;;3.50;1.40;;;6.30;99.90;;;;;;5019413;28;20041;-86
2023/03/26 01:05:34;;;;;;;3.50;1.40;;;6.30;99.90;;;;;;5019928;28;20037;-86
2023/03/26 01:08:13;;;;;;;5.67;1.77;;;6.30;99.90;;;;;;5019151;28;20477;-86
2023/03/26 01:10:43;;;;;;;6.47;1.40;;;6.30;99.90;;;;;;5020368;28;20079;-86
2023/03/26 01:13:09;;;;;;;3.47;1.47;;;6.20;99.90;;;;;;5018973;28;20049;-87
2023/03/26 01:15:36;;;;;;;4.17;1.67;;;6.30;99.90;;;;;;5019150;28;20045;-86
2023/03/26 01:18:04;;;;;;;4.03;1.33;;;6.20;99.90;;;;;;5019534;28;20508;-86
2023/03/26 01:20:32;;;;;;;5.83;1.47;;;6.20;99.90;;;;;;5020536;28;20132;-86
2023/03/26 01:23:04;;;;;;;6.77;1.60;;;6.20;99.90;;;;;;5019637;28;20076;-87
2023/03/26 01:25:36;;;;;;;9.00;2.33;;;6.20;99.90;;;;;;5020480;28;20041;-86
2023/03/26 01:28:07;;;;;;;3.50;1.50;;;6.10;99.90;;;;;;5020115;28;20057;-87
2023/03/26 01:31:12;;;;;;;6.73;1.80;;;6.10;99.90;;;;;;4999837;28;20044;-87
2023/03/26 01:33:57;;;;;;;5.73;1.53;;;6.10;99.90;;;;;;4986252;28;20048;-87
2023/03/26 01:36:36;;;;;;;5.32;1.85;;;6.10;99.90;;;;;;5021086;28;20041;-86
2023/03/26 01:39:17;;;;;;;8.67;1.60;;;6.10;99.90;;;;;;5021087;28;20119;-87
2023/03/26 01:41:50;;;;;;;3.63;1.50;;;6.10;99.90;;;;;;5019693;28;20037;-87
2023/03/26 01:44:21;;;;;;;5.53;1.70;;;6.00;99.90;;;;;;5019008;28;20037;-87
2023/03/26 01:46:48;;;;;;;7.00;1.60;;;6.00;99.90;;;;;;5020604;28;20077;-86
2023/03/26 01:49:14;;;;;;;6.17;1.30;;;6.00;99.90;;;;;;5020103;28;20026;-87
2023/03/26 01:51:41;;;;;;;6.47;1.57;;;5.90;99.90;;;;;;5018642;28;20045;-87
2023/03/26 01:54:14;;;;;;;5.03;1.40;;;5.90;99.90;;;;;;5018345;28;20120;-87
2023/03/26 01:57:06;;;;;;;7.27;1.77;;;5.90;99.90;;;;;;5020160;28;20022;-87
2023/03/26 02:00:03;;;;;;;4.73;1.40;;;5.80;99.90;;;;;;5019675;28;20046;-87
2023/03/26 02:02:40;;;;;;;6.93;2.00;;;5.80;99.90;;;;;;4998411;28;20101;-87
2023/03/26 02:05:38;;;;;;;5.57;2.03;;;5.80;99.90;;;;;;5020168;28;20729;-87
2023/03/26 02:08:08;;;;;;;7.33;2.07;;;5.70;99.90;;;;;;5018497;28;20064;-87
2023/03/26 02:10:37;;;;;;;10.07;2.13;;;5.70;99.90;;;;;;5019818;28;20028;-87
2023/03/26 02:13:04;;;;;;;4.17;1.47;;;5.70;99.90;;;;;;5018847;28;20148;-87
2023/03/26 02:15:30;;;;;;;5.13;1.87;;;5.70;99.90;;;;;;5019557;28;20083;-87
2023/03/26 02:17:58;;;;;;;4.53;1.60;;;5.60;99.90;;;;;;5018574;28;20018;-87
2023/03/26 02:20:28;;;;;;;7.43;2.20;;;5.60;99.90;;;;;;5020347;28;21450;-87
2023/03/26 02:22:55;;;;;;;7.53;1.63;;;5.60;99.90;;;;;;5018964;28;20092;-87
2023/03/26 02:25:21;;;;;;;4.47;1.70;;;5.60;99.90;;;;;;5019783;28;20044;-87
2023/03/26 02:27:49;;;;;;;9.33;3.33;;;5.60;99.90;;;;;;5019595;28;20037;-87
2023/03/26 02:30:25;;;;;;;7.17;1.70;;;5.60;99.90;;;;;;5018848;28;20041;-87
2023/03/26 02:32:52;;;;;;;7.27;1.60;;;5.50;99.90;;;;;;5018296;28;20473;-87
2023/03/26 02:35:20;;;;;;;9.43;1.80;;;5.50;99.90;;;;;;5018187;28;20473;-87
2023/03/26 02:37:45;;;;;;;6.53;1.77;;;5.50;99.90;;;;;;5018696;28;20499;-87
2023/03/26 02:40:12;;;;;;;9.70;1.80;;;5.50;99.90;;;;;;5019616;28;20026;-87
2023/03/26 02:42:38;;;;;;;7.83;2.73;;;5.50;99.90;;;;;;5019757;28;21300;-87
2023/03/26 02:45:05;;;;;;;6.70;1.80;;;5.50;99.90;;;;;;5019407;28;20037;-87
2023/03/26 02:47:32;;;;;;;6.23;1.87;;;5.50;99.90;;;;;;5019361;28;20535;-87
2023/03/26 02:49:58;;;;;;;7.73;2.00;;;5.50;99.90;;;;;;5020290;28;20167;-87
2023/03/26 02:52:24;;;;;;;5.80;1.70;;;5.50;99.90;;;;;;5019982;28;20029;-87
2023/03/26 02:54:49;;;;;;;10.67;2.17;;;5.50;99.90;;;;;;5019078;28;20447;-87
2023/03/26 02:57:15;;;;;;;5.50;1.80;;;5.50;99.90;;;;;;5019143;28;20607;-87
2023/03/26 02:59:41;;;;;;;5.20;1.70;;;5.50;99.90;;;;;;5018307;28;20573;-87
2023/03/26 03:02:06;;;;;;;6.90;2.90;;;5.50;99.90;;;;;;5018323;28;20029;-87
2023/03/26 03:04:32;;;;;;;6.87;1.80;;;5.50;99.90;;;;;;5002598;28;20388;-87
2023/03/26 03:06:58;;;;;;;8.10;2.03;;;5.50;99.90;;;;;;5022225;28;20032;-87
2023/03/26 03:09:24;;;;;;;7.37;1.50;;;5.50;99.90;;;;;;5023003;28;20053;-88
2023/03/26 03:11:51;;;;;;;7.63;1.53;;;5.50;99.90;;;;;;5022020;28;20025;-87
2023/03/26 03:14:18;;;;;;;8.70;2.00;;;5.50;99.90;;;;;;5022074;28;20576;-87
2023/03/26 03:16:43;;;;;;;6.13;1.53;;;5.50;99.90;;;;;;5022641;28;21531;-87
2023/03/26 03:19:09;;;;;;;5.23;1.93;;;5.50;99.90;;;;;;5022731;28;20029;-87
2023/03/26 03:21:35;;;;;;;8.50;2.60;;;5.50;99.90;;;;;;5022703;28;20345;-87
2023/03/26 03:24:00;;;;;;;8.80;2.13;;;5.50;99.90;;;;;;5021602;28;20029;-87
2023/03/26 03:26:28;;;;;;;6.93;1.80;;;5.50;99.90;;;;;;5022263;28;20037;-88
2023/03/26 03:28:55;;;;;;;7.33;2.10;;;5.50;99.90;;;;;;5021412;28;20040;-87
2023/03/26 03:31:21;;;;;;;8.23;1.70;;;5.50;99.90;;;;;;5022421;28;20034;-87
2023/03/26 03:33:47;;;;;;;4.60;1.60;;;5.50;99.90;;;;;;5021797;28;20025;-87
2023/03/26 03:36:17;;;;;;;6.03;1.50;;;5.50;99.90;;;;;;5022085;28;20407;-87
2023/03/26 03:38:43;;;;;;;8.80;1.87;;;5.50;99.90;;;;;;5021074;28;20040;-87
2023/03/26 03:41:09;;;;;;;8.07;2.03;;;5.50;99.90;;;;;;5022814;28;20030;-87
2023/03/26 03:43:35;;;;;;;9.60;2.07;;;5.50;99.90;;;;;;5022692;28;20147;-87
2023/03/26 03:46:00;;;;;;;4.77;1.57;;;5.50;99.90;;;;;;4999364;28;20490;-87
2023/03/26 03:48:27;;;;;;;7.97;2.00;;;5.50;99.90;;;;;;4998132;28;20088;-87
2023/03/26 03:50:53;;;;;;;7.33;1.60;;;5.50;99.90;;;;;;5021241;28;20037;-88
2023/03/26 03:53:20;;;;;;;8.93;1.80;;;5.50;99.90;;;;;;5021003;28;20033;-87
2023/03/26 03:55:51;;;;;;;7.47;1.87;;;5.50;99.90;;;;;;5023135;28;20036;-88
2023/03/26 03:58:20;;;;;;;5.90;1.57;;;5.50;99.90;;;;;;5021039;28;20045;-88
2023/03/26 04:00:47;;;;;;;9.60;1.97;;;5.50;99.90;;;;;;5022518;28;20096;-87
2023/03/26 04:03:13;;;;;;;8.57;1.70;;;5.50;99.90;;;;;;5021675;28;20038;-87
2023/03/26 04:05:39;;;;;;;6.27;2.03;;;5.50;99.90;;;;;;4999158;28;20022;-87
2023/03/26 04:08:05;;;;;;;7.50;1.60;;;5.50;99.90;;;;;;5020909;28;20029;-87
2023/03/26 04:10:31;;;;;;;9.33;2.80;;;5.60;99.90;;;;;;5022377;28;20376;-87
2023/03/26 04:12:57;;;;;;;7.27;2.07;;;5.60;99.90;;;;;;5021045;28;20022;-87
2023/03/26 04:15:22;;;;;;;5.37;1.97;;;5.60;99.90;;;;;;5020867;28;20045;-87
2023/03/26 04:17:48;;;;;;;7.67;1.93;;;5.60;99.90;;;;;;5020668;28;20461;-87
2023/03/26 04:20:14;;;;;;;9.70;1.90;;;5.60;99.90;;;;;;5021247;28;20080;-87
2023/03/26 04:22:43;;;;;;;6.30;1.93;;;5.60;99.90;;;;;;4998085;28;20033;-87
2023/03/26 04:25:11;;;;;;;5.53;1.90;;;5.60;99.90;;;;;;5021744;28;20040;-87
2023/03/26 04:27:37;;;;;;;6.97;1.83;;;5.50;99.90;;;;;;5020676;28;20037;-87
2023/03/26 04:30:06;;;;;;;8.53;2.00;;;5.50;99.90;;;;;;5019163;28;20044;-87
2023/03/26 04:32:36;;;;;;;7.30;1.87;;;5.50;99.90;;;;;;5019762;28;20052;-87
2023/03/26 04:35:04;;;;;;;11.30;1.90;;;5.50;99.90;;;;;;5021739;28;20788;-87
2023/03/26 04:37:38;;;;;;;8.50;1.97;;;5.50;99.90;;;;;;5020850;28;20061;-87
2023/03/26 04:40:08;;;;;;;10.57;1.90;;;5.50;99.90;;;;;;5020923;28;21447;-87
2023/03/26 04:42:36;;;;;;;11.43;2.23;;;5.50;99.90;;;;;;5021170;28;20361;-87
2023/03/26 04:45:04;;;;;;;6.97;1.90;;;5.60;99.90;;;;;;5021944;28;20041;-86
2023/03/26 04:47:30;;;;;;;9.00;2.70;;;5.60;99.90;;;;;;5019287;28;20109;-87
2023/03/26 04:49:56;;;;;;;9.07;1.80;;;5.60;99.90;;;;;;5021364;28;20040;-87
2023/03/26 04:52:21;;;;;;;7.67;1.87;;;5.70;99.90;;;;;;5017716;28;20072;-87
2023/03/26 04:54:47;;;;;;;10.77;1.80;;;5.70;99.90;;;;;;5020359;28;20523;-87
2023/03/26 04:57:38;;;;;;;7.07;2.57;;;5.80;99.90;;;;;;5019425;28;20461;-86
2023/03/26 05:00:15;;;;;;;8.33;1.60;;;5.80;99.90;;;;;;5020782;28;20053;-86
2023/03/26 05:02:42;;;;;;;9.27;1.93;;;5.90;99.90;;;;;;5020450;28;20475;-86
2023/03/26 05:05:08;;;;;;;8.33;1.87;;;6.00;99.90;;;;;;5020065;28;20045;-87
2023/03/26 05:07:35;;;;;;;8.83;2.03;;;6.00;99.90;;;;;;5018375;28;20033;-87
2023/03/26 05:10:02;;;;;;;8.83;1.87;;;6.00;99.90;;;;;;5020296;28;20040;-87
2023/03/26 05:12:28;;;;;;;6.20;2.00;;;6.10;99.90;;;;;;5016622;28;20033;-87
2023/03/26 05:14:54;;;;;;;6.43;1.80;;;6.10;99.90;;;;;;5019677;28;20049;-87
2023/03/26 05:17:22;;;;;;;8.47;1.90;;;6.10;99.90;;;;;;5019173;28;20029;-87
2023/03/26 05:19:48;;;;;;;7.47;1.83;;;6.10;99.90;;;;;;5019691;28;20025;-87
2023/03/26 05:22:13;;;;;;;7.00;1.77;;;6.10;99.90;;;;;;5019234;28;20041;-88
2023/03/26 05:24:39;;;;;;;8.53;1.87;;;6.00;99.90;;;;;;5019665;28;20440;-87
2023/03/26 05:27:05;;;;;;;9.03;2.10;;;6.00;99.90;;;;;;5018993;28;20392;-87
2023/03/26 05:29:30;;;;;;;6.20;1.80;;;6.00;99.90;;;;;;5020015;28;20168;-87
2023/03/26 05:31:56;;;;;;;9.47;2.37;;;5.90;99.90;;;;;;5019587;28;20116;-87
2023/03/26 05:34:25;;;;;;;8.93;2.87;;;5.90;99.90;;;;;;5017079;28;20033;-87
2023/03/26 05:36:51;;;;;;;10.27;2.80;;;5.90;99.90;;;;;;5018692;28;20065;-87
2023/03/26 05:39:16;;;;;;;7.87;2.57;;;5.90;99.90;;;;;;5019471;28;20108;-87
2023/03/26 05:41:42;;;;;;;9.80;2.30;;;5.90;99.90;;;;;;5019146;28;20057;-86
2023/03/26 05:44:07;;;;;;;7.70;2.53;;;5.90;99.90;;;;;;5019285;28;20112;-87
2023/03/26 05:46:33;;;;;;;9.50;2.20;;;6.00;99.90;;;;;;5020161;28;20052;-86
2023/03/26 05:48:59;;;;;;;7.23;2.00;;;6.00;99.90;;;;;;5016876;28;20080;-87
2023/03/26 05:51:24;;;;;;;9.33;2.73;;;6.00;99.90;;;;;;5018430;28;20040;-86
2023/03/26 05:53:50;;;;;;;11.67;2.67;;;6.10;99.90;;;;;;5018804;28;20042;-86
2023/03/26 05:56:16;;;;;;;7.83;2.30;;;6.10;99.90;;;;;;5019005;28;20033;-87
2023/03/26 05:58:42;;;;;;;7.93;2.07;;;6.10;99.90;;;;;;5017688;28;20041;-87
2023/03/26 06:01:15;;;;;;;7.27;1.90;;;6.10;99.90;;;;;;4996220;28;20026;-87
2023/03/26 06:03:43;;;;;;;7.73;2.07;;;6.20;99.90;;;;;;5016406;28;20025;-86
2023/03/26 06:06:14;;;;;;;8.20;2.37;;;6.20;99.90;;;;;;5016367;28;20037;-86
2023/03/26 06:08:47;;;;;;;12.30;3.47;;;6.20;99.90;;;;;;5016406;28;20026;-87
2023/03/26 06:11:15;;;;;;;10.33;2.30;;;6.20;99.90;;;;;;5018119;28;20045;-87
2023/03/26 06:13:41;;;;;;;7.07;2.20;;;6.30;99.90;;;;;;4996110;28;20041;-86
2023/03/26 06:16:11;;;;;;;11.73;2.70;;;6.30;99.90;;;;;;5018334;28;20064;-88
2023/03/26 06:18:37;;;;;;;9.67;2.93;;;6.30;99.90;;;;;;5019363;28;20044;-93
2023/03/26 06:21:04;;;;;;;8.77;2.33;;;6.40;99.90;;;;;;5022073;28;20056;-93
2023/03/26 06:23:30;;;;;;;9.03;2.40;;;6.40;99.90;;;;;;5002985;28;20428;-93
2023/03/26 06:25:55;;;;;;;7.50;2.13;;;6.50;99.90;;;;;;5021638;28;20025;-92
2023/03/26 06:28:22;;;;;;;9.97;1.93;;;6.50;99.90;;;;;;5020364;28;20058;-92
2023/03/26 06:30:48;;;;;;;8.87;2.50;;;6.60;99.90;;;;;;5021070;28;20036;-94
2023/03/26 06:33:16;;;;;;;7.27;2.10;;;6.70;99.90;;;;;;5022047;28;20029;-94
2023/03/26 06:35:44;;;;;;;6.70;1.70;;;6.80;99.90;;;;;;5021929;28;20053;-92
2023/03/26 06:38:10;;;;;;;6.67;1.70;;;6.90;99.90;;;;;;5021932;28;20033;-93
2023/03/26 06:40:35;;;;;;;14.40;3.63;;;6.90;99.90;;;;;;5025959;28;20036;-93
2023/03/26 06:43:01;;;;;;;8.20;1.90;;;7.00;99.90;;;;;;5026555;28;20033;-92
2023/03/26 06:45:27;;;;;;;6.07;2.03;;;7.10;99.90;;;;;;5023828;28;20026;-93
2023/03/26 06:47:53;;;;;;;7.87;1.90;;;7.20;99.90;;;;;;5022448;28;20156;-91
2023/03/26 06:50:19;;;;;;;11.50;2.20;;;7.30;99.90;;;;;;5024512;28;20548;-93
2023/03/26 06:52:45;;;;;;;7.60;2.03;;;7.40;99.90;;;;;;5003347;28;20037;-92
2023/03/26 06:55:11;;;;;;;9.30;2.23;;;7.50;99.90;;;;;;5020443;28;20048;-93
2023/03/26 06:57:36;;;;;;;8.50;2.37;;;7.50;99.90;;;;;;5018059;28;20029;-92
2023/03/26 07:00:03;;;;;;;8.20;2.70;;;7.60;99.90;;;;;;5020941;28;20044;-92
2023/03/26 07:02:29;;;;;;;9.03;2.87;;;7.70;99.90;;;;;;5022539;28;20020;-91
2023/03/26 07:04:54;;;;;;;8.73;2.57;;;7.70;99.90;;;;;;5023817;28;20033;-92
2023/03/26 07:07:23;;;;;;;9.20;1.90;;;7.70;99.90;;;;;;5023561;28;20026;-91
2023/03/26 07:09:49;;;;;;;7.60;1.90;;;7.70;99.90;;;;;;5001750;28;20025;-90
2023/03/26 07:12:16;;;;;;;8.03;2.27;;;7.80;99.90;;;;;;5003332;28;20029;-90
2023/03/26 07:14:42;;;;;;;7.83;2.47;;;7.80;99.90;;;;;;5016131;28;20496;-88
2023/03/26 07:17:07;;;;;;;7.43;1.90;;;7.80;99.90;;;;;;5019838;28;20037;-89
2023/03/26 07:19:33;;;;;;;8.93;2.10;;;7.80;99.90;;;;;;4999017;28;20044;-86
2023/03/26 07:21:59;;;;;;;5.40;1.90;;;7.80;99.90;;;;;;5018318;28;20033;-87
2023/03/26 07:24:25;;;;;;;7.53;2.57;;;7.90;99.90;;;;;;5017838;28;20079;-87
2023/03/26 07:27:04;;;;;;;7.07;1.90;;;7.80;99.90;;;;;;5016269;28;20690;-87
2023/03/26 07:29:51;;;;;;;7.90;2.00;;;7.80;99.90;;;;;;5015231;28;20033;-87
2023/03/26 07:32:30;;;;;;;14.13;2.37;;;7.70;99.90;;;;;;5016343;28;20452;-87
2023/03/26 07:35:18;;;;;;;10.73;2.13;;;7.70;99.90;;;;;;5016507;28;20415;-87
2023/03/26 07:38:13;;;;;;;7.97;1.77;;;7.70;99.90;;;;;;5018754;28;20034;-87
2023/03/26 07:40:57;;;;;;;8.50;2.20;;;7.60;99.90;;;;;;5018579;28;20041;-87
2023/03/26 07:44:04;;;;;;;12.57;6.40;;;7.60;99.90;;;;;;4995891;28;20034;-85
2023/03/26 07:46:33;;;;;;;10.83;3.20;;;7.60;99.90;;;;;;5019708;28;20026;-86
2023/03/26 07:49:00;;;;;;;9.40;2.80;;;7.60;99.90;;;;;;5017175;28;20072;-87
2023/03/26 07:51:26;;;;;;;8.77;2.10;;;7.60;99.90;;;;;;5017160;28;20646;-87
2023/03/26 07:53:58;;;;;;;14.10;2.10;;;7.50;99.90;;;;;;5017806;28;20108;-87
2023/03/26 07:56:36;;;;;;;10.87;2.20;;;7.60;99.90;;;;;;5022936;28;20044;-88
2023/03/26 07:59:28;;;;;;;9.60;2.50;;;7.60;99.90;;;;;;5019101;28;20519;-78
2023/03/26 08:02:25;;;;;;;11.33;2.40;;;7.70;99.90;;;;;;5006165;28;20030;-86
2023/03/26 08:05:00;;;;;;;12.67;5.70;;;7.80;99.90;;;;;;5002405;28;20036;-87
2023/03/26 08:07:38;;;;;;;8.52;2.88;;;7.80;99.90;;;;;;5007124;28;20034;-89
2023/03/26 08:10:28;;;;;;;11.77;4.87;;;7.90;99.90;;;;;;5012798;28;20098;-89
2023/03/26 08:13:29;;;;;;;12.37;3.47;;;7.90;99.90;;;;;;5009689;28;20147;-89
2023/03/26 08:16:04;;;;;;;10.33;3.13;;;7.90;99.90;;;;;;5006795;28;20095;-88
2023/03/26 08:19:11;;;;;;;8.80;1.92;;;7.90;99.90;;;;;;5007673;28;20157;-88
2023/03/26 08:21:44;;;;;;;7.60;2.57;;;7.90;99.90;;;;;;4993241;28;20128;-89
2023/03/26 08:24:21;;;;;;;7.40;1.90;;;7.80;99.90;;;;;;5009801;28;20021;-88
2023/03/26 08:27:18;;;;;;;10.07;4.23;;;7.90;99.90;;;;;;5008544;28;20041;-89
2023/03/26 08:30:03;;;;;;;8.93;2.60;;;7.90;99.90;;;;;;5010823;28;20026;-87
2023/03/26 08:32:29;;;;;;;9.73;2.50;;;7.90;99.90;;;;;;5008586;28;20030;-89
2023/03/26 08:34:56;;;;;;;8.00;1.93;;;8.00;99.90;;;;;;5011171;28;20117;-89
2023/03/26 08:37:22;;;;;;;7.43;1.90;;;8.00;99.90;;;;;;5005140;28;20038;-90
2023/03/26 08:39:47;;;;;;;5.20;1.67;;;8.10;99.90;;;;;;5010638;28;20095;-89
2023/03/26 08:42:43;;;;;;;5.57;1.90;;;8.20;99.90;;;;;;5010069;28;20037;-88
2023/03/26 08:45:50;;;;;;;9.60;2.25;;;8.20;99.90;;;;;;5008889;28;20042;-89
2023/03/26 08:48:25;;;;;;;8.87;2.47;;;8.30;99.90;;;;;;5007811;28;20037;-81
2023/03/26 08:51:19;;;;;;;10.37;3.40;;;8.30;99.90;;;;;;5007210;28;20588;-80
2023/03/26 08:54:19;;;;;;;9.20;2.17;;;8.30;99.90;;;;;;5007077;28;20053;-80
2023/03/26 08:56:57;;;;;;;10.47;2.10;;;8.30;99.90;;;;;;5008211;28;20075;-80
2023/03/26 08:59:56;;;;;;;10.23;2.10;;;8.30;99.90;;;;;;5008175;28;20643;-80
2023/03/26 09:02:43;;;;;;;8.30;2.43;;;8.20;99.90;;;;;;4987196;28;20034;-79
2023/03/26 09:05:53;;;;;;;6.17;2.37;;;8.20;99.90;;;;;;4997927;28;20520;-78
2023/03/26 09:08:19;;;;;;;11.83;2.90;;;8.20;99.90;;;;;;4978528;28;20049;-81
2023/03/26 09:10:54;;;;;;;8.07;2.10;;;8.10;99.90;;;;;;5000608;28;20036;-81
2023/03/26 09:13:55;;;;;;;9.17;2.57;;;8.10;99.90;;;;;;5007718;28;20116;-81
2023/03/26 09:16:30;;;;;;;11.07;2.57;;;8.10;99.90;;;;;;5004900;28;20148;-80
2023/03/26 09:19:07;;;;;;;9.45;2.03;;;8.10;99.90;;;;;;5011715;28;20034;-80
2023/03/26 09:22:11;;;;;;;8.43;2.27;;;8.00;99.90;;;;;;5015483;28;20036;-79
2023/03/26 09:24:48;;;;;;;10.63;2.70;;;8.00;99.90;;;;;;5014736;28;20041;-79
2023/03/26 09:27:49;;;;;;;11.97;4.00;;;8.00;99.90;;;;;;5017341;28;20037;-80
2023/03/26 09:30:35;;;;;;;9.43;4.37;;;8.00;99.90;;;;;;5015295;28;20085;-81
2023/03/26 09:33:22;;;;;;;7.13;2.50;;;8.00;99.90;;;;;;5004194;28;20492;-82
2023/03/26 09:35:58;;;;;;;13.63;3.33;;;7.90;99.90;;;;;;5016539;28;20065;-81
2023/03/26 09:38:29;;;;;;;14.30;3.20;;;7.90;99.90;;;;;;5014088;28;20029;-81
2023/03/26 09:41:01;;;;;;;7.93;2.80;;;7.90;99.90;;;;;;5015628;28;20104;-81
2023/03/26 09:44:16;;;;;;;10.03;2.37;;;7.80;99.90;;;;;;5016451;28;20120;-89
2023/03/26 09:47:22;;;;;;;9.30;2.50;;;7.80;99.90;;;;;;5017412;28;20033;-91
2023/03/26 09:50:09;;;;;;;11.63;3.72;;;7.70;99.90;;;;;;5018868;28;20038;-94
2023/03/26 09:52:56;;;;;;;7.37;2.07;;;7.80;99.90;;;;;;5014992;28;20037;-89
2023/03/26 09:55:43;;;;;;;7.90;1.83;;;7.70;99.90;;;;;;4990830;28;20038;-87
2023/03/26 09:58:36;;;;;;;12.23;2.13;;;7.70;99.90;;;;;;5010706;28;20034;-88
2023/03/26 10:01:15;;;;;;;6.53;1.97;;;7.80;99.90;;;;;;5013293;28;20033;-89
2023/03/26 10:03:59;;;;;;;13.23;2.63;;;7.90;99.90;;;;;;5009697;28;20026;-88
2023/03/26 10:06:54;;;;;;;9.90;1.90;;;8.00;99.90;;;;;;5014589;28;20104;-88
2023/03/26 10:09:39;;;;;;;8.97;2.40;;;8.10;99.90;;;;;;4986698;28;20120;-88
2023/03/26 10:12:18;;;;;;;8.30;2.75;;;8.10;99.90;;;;;;4993756;28;20410;-85
2023/03/26 10:15:03;;;;;;;11.63;2.50;;;8.20;99.90;;;;;;5015224;28;20037;-84
2023/03/26 10:17:54;;;;;;;6.78;2.08;;;8.20;99.90;;;;;;5020592;28;20406;-82
2023/03/26 10:20:44;;;;;;;7.27;2.30;;;8.20;99.90;;;;;;5020054;28;20037;-82
2023/03/26 10:23:46;;;;;;;6.93;2.10;;;8.20;99.90;;;;;;5019328;28;20495;-83
2023/03/26 10:26:37;;;;;;;6.37;2.30;;;8.20;99.90;;;;;;5019849;28;20029;-83
2023/03/26 10:29:20;;;;;;;7.87;2.03;;;8.20;99.90;;;;;;5019285;28;20925;-83
2023/03/26 10:32:04;;;;;;;9.80;2.10;;;8.20;99.90;;;;;;5021070;28;20447;-83
2023/03/26 10:35:06;;;;;;;9.10;1.90;;;8.20;99.90;;;;;;5020541;28;21006;-83
2023/03/26 10:37:42;;;;;;;7.23;1.70;;;8.10;99.90;;;;;;5019816;28;20065;-83
2023/03/26 10:40:22;;;;;;;7.23;2.03;;;8.10;99.90;;;;;;5018658;28;20048;-84
2023/03/26 10:43:20;;;;;;;9.67;2.13;;;8.10;99.90;;;;;;4999013;28;20049;-84
2023/03/26 10:46:04;;;;;;;6.33;2.27;;;8.10;99.90;;;;;;5021670;28;20029;-83
2023/03/26 10:49:02;;;;;;;5.30;2.80;;;8.00;99.90;;;;;;5019190;28;20586;-85
2023/03/26 10:51:52;;;;;;;5.93;2.10;;;7.90;99.90;;;;;;4999847;28;20045;-84
2023/03/26 10:54:25;;;;;;;4.50;2.13;;;7.90;99.90;;;;;;5019032;28;20029;-83
2023/03/26 10:56:53;;;;;;;6.60;1.67;;;7.90;99.90;;;;;;5016329;28;20105;-84
2023/03/26 10:59:19;;;;;;;4.83;1.63;;;8.00;99.90;;;;;;5017055;28;20124;-85
2023/03/26 11:02:44;;;;;;;3.70;1.90;;;8.00;99.90;;;;;;5019333;28;20033;-85
2023/03/26 11:05:44;;;;;;;3.13;1.40;;;8.10;99.90;;;;;;4981479;28;20167;-86
2023/03/26 11:08:38;;;;;;;6.30;1.50;;;8.30;99.90;;;;;;5018431;28;20440;-86
2023/03/26 11:11:25;;;;;;;3.17;1.50;;;8.30;99.90;;;;;;4974705;28;20044;-83
2023/03/26 11:13:51;;;;;;;2.97;1.20;;;8.40;99.90;;;;;;5019066;28;20096;-83
2023/03/26 11:16:32;;;;;;;5.17;1.70;;;8.50;99.90;;;;;;5019654;28;20114;-84
2023/03/26 11:19:03;;;;;;;4.03;2.23;;;8.60;99.90;;;;;;5017731;28;20033;-88
2023/03/26 11:22:08;;;;;;;2.83;1.30;;;8.80;99.90;;;;;;5024063;28;20041;-84
2023/03/26 11:24:57;;;;;;;4.03;1.30;;;8.90;99.90;;;;;;4995094;28;20908;-83
2023/03/26 11:27:47;;;;;;;3.27;1.40;;;8.90;99.90;;;;;;4980386;28;20514;-83
2023/03/26 11:30:28;;;;;;;3.50;1.30;;;9.00;99.90;;;;;;5019786;28;20038;-84
2023/03/26 11:32:58;;;;;;;4.33;1.53;;;9.10;99.90;;;;;;5021666;28;20025;-84
2023/03/26 11:35:47;;;;;;;2.57;1.27;;;9.10;99.90;;;;;;5021484;28;20049;-84
2023/03/26 11:38:31;;;;;;;2.67;1.10;;;9.10;99.90;;;;;;5020661;28;20041;-85
2023/03/26 11:41:00;;;;;;;4.43;1.47;;;9.20;99.90;;;;;;5022041;28;20497;-84
2023/03/26 11:43:33;;;;;;;3.80;1.53;;;9.10;99.90;;;;;;5021182;28;20639;-83
2023/03/26 11:46:03;;;;;;;2.37;0.93;;;9.20;99.90;;;;;;5021298;28;20037;-83
2023/03/26 11:48:45;;;;;;;3.60;0.93;;;9.30;99.90;;;;;;5021778;28;20052;-82
2023/03/26 11:51:28;;;;;;;1.87;0.80;;;9.40;99.90;;;;;;4999759;28;20037;-83
2023/03/26 11:53:53;;;;;;;5.30;1.03;;;9.40;99.90;;;;;;5019359;28;20037;-85
2023/03/26 11:56:40;;;;;;;1.67;1.00;;;9.40;99.90;;;;;;5017391;28;20167;-83
2023/03/26 11:59:28;;;;;;;2.07;0.87;;;9.50;99.90;;;;;;5021510;28;20054;-84
2023/03/26 12:02:03;;;;;;;1.23;0.80;;;9.40;99.90;;;;;;5011592;28;20026;-85
2023/03/26 12:04:34;;;;;;;1.95;1.23;;;9.30;99.90;;;;;;5010498;28;20475;-86
2023/03/26 12:07:33;;;;;;;1.27;0.70;;;9.30;99.90;;;;;;4992162;28;20041;-86
2023/03/26 12:10:01;;;;;;;1.80;1.00;;;9.70;99.90;;;;;;5011941;28;20034;-86
2023/03/26 12:12:35;;;;;;;1.87;0.80;;;10.20;99.90;;;;;;5009099;28;20045;-84
2023/03/26 12:15:01;;;;;;;1.23;0.80;;;10.50;99.90;;;;;;5008133;28;20068;-86
2023/03/26 12:17:32;;;;;;;2.47;0.90;;;10.80;99.90;;;;;;5011031;28;20045;-85
2023/03/26 12:19:58;;;;;;;1.60;0.80;;;10.70;99.90;;;;;;5008867;28;20034;-86
2023/03/26 12:22:36;;;;;;;1.93;1.00;;;10.50;99.90;;;;;;5007606;28;20037;-84
2023/03/26 12:25:21;;;;;;;1.90;0.80;;;10.50;99.90;;;;;;5010392;28;20041;-86
2023/03/26 12:27:50;;;;;;;1.75;0.95;;;10.40;99.90;;;;;;5009045;28;20037;-86
2023/03/26 12:30:24;;;;;;;2.40;1.00;;;10.40;99.90;;;;;;5011874;28;20048;-85
2023/03/26 12:32:52;;;;;;;1.67;1.00;;;10.40;99.90;;;;;;5010458;28;20091;-86
2023/03/26 12:35:25;;;;;;;1.77;1.00;;;10.40;99.90;;;;;;5012275;28;20038;-86
2023/03/26 12:38:11;;;;;;;1.70;1.10;;;10.20;99.90;;;;;;5007922;28;20025;-85
2023/03/26 12:40:38;;;;;;;3.33;1.30;;;10.30;99.90;;;;;;5006234;28;20056;-87
2023/03/26 12:43:19;;;;;;;3.57;1.50;;;10.20;99.90;;;;;;5010788;28;20089;-87
2023/03/26 12:45:57;;;;;;;4.00;1.37;;;10.20;99.90;;;;;;5012657;28;20021;-86
2023/03/26 12:48:24;;;;;;;2.37;1.30;;;10.10;99.90;;;;;;5009505;28;20116;-87
2023/03/26 12:51:11;;;;;;;3.57;1.40;;;10.00;99.90;;;;;;5007722;28;20076;-86
2023/03/26 12:54:05;;;;;;;2.47;1.40;;;10.00;99.90;;;;;;5008770;28;21462;-85
2023/03/26 12:56:53;;;;;;;1.93;1.20;;;10.00;99.90;;;;;;5011662;28;20044;-85
2023/03/26 12:59:45;;;;;;;2.63;1.40;;;10.00;99.90;;;;;;5010066;28;20120;-84
2023/03/26 13:02:39;;;;;;;1.57;1.20;;;9.80;99.90;;;;;;5006104;28;20037;-85
2023/03/26 13:05:29;;;;;;;3.37;2.00;;;9.80;99.90;;;;;;5009145;28;20547;-85
2023/03/26 13:08:13;;;;;;;2.53;1.37;;;9.80;99.90;;;;;;5008806;28;20872;-85
2023/03/26 13:10:57;;;;;;;2.67;1.40;;;9.80;99.90;;;;;;5008973;28;20401;-85
2023/03/26 13:14:08;;;;;;;3.37;1.33;;;9.80;99.90;;;;;;5008464;28;20076;-84
2023/03/26 13:16:55;;;;;;;2.87;1.40;;;9.80;99.90;;;;;;5004225;28;20041;-84
2023/03/26 13:19:27;;;;;;;2.77;1.50;;;9.80;99.90;;;;;;5008599;28;20045;-86
2023/03/26 13:22:02;;;;;;;4.33;1.23;;;9.80;99.90;;;;;;5007398;28;20548;-83
2023/03/26 13:24:28;;;;;;;2.47;1.37;;;9.80;99.90;;;;;;5012485;28;20059;-73
2023/03/26 13:27:09;;;;;;;3.10;1.37;;;9.80;99.90;;;;;;5016714;28;20037;-80
2023/03/26 13:29:40;;;;;;;3.10;1.37;;;9.80;99.90;;;;;;5017677;28;20037;-83
2023/03/26 13:32:17;;;;;;;4.03;1.80;;;9.90;99.90;;;;;;5017534;28;20060;-83
2023/03/26 13:35:07;;;;;;;2.00;1.30;;;9.90;99.90;;;;;;5019978;28;20875;-84